sensor_id;sensor_type;location;lat;lon;timestamp;pressure;altitude;pressure_sealevel;temperature;humidity
43420;BME280;29017;51.514;-0.178;2023-03-14T00:00:05;98229.34;;;12.99;86.50
43420;BME280;29017;51.514;-0.178;2023-03-14T00:02:34;98237.06;;;13.00;87.94
43420;BME280;29017;51.514;-0.178;2023-03-14T00:05:02;98244.06;;;12.95;88.39
43420;BME280;29017;51.514;-0.178;2023-03-14T00:07:34;98237.38;;;12.92;89.41
43420;BME280;29017;51.514;-0.178;2023-03-14T00:10:03;98231.53;;;12.90;90.39
43420;BME280;29017;51.514;-0.178;2023-03-14T00:12:31;98235.22;;;12.89;91.28
43420;BME280;29017;51.514;-0.178;2023-03-14T00:14:58;98241.53;;;12.88;91.55
43420;BME280;29017;51.514;-0.178;2023-03-14T00:17:27;98232.81;;;12.88;91.92
43420;BME280;29017;51.514;-0.178;2023-03-14T00:19:54;98237.50;;;12.85;92.16
43420;BME280;29017;51.514;-0.178;2023-03-14T00:22:21;98242.22;;;12.83;92.60
43420;BME280;29017;51.514;-0.178;2023-03-14T00:24:48;98245.09;;;12.82;92.76
43420;BME280;29017;51.514;-0.178;2023-03-14T00:27:15;98245.91;;;12.82;93.08
43420;BME280;29017;51.514;-0.178;2023-03-14T00:29:42;98248.19;;;12.79;93.28
43420;BME280;29017;51.514;-0.178;2023-03-14T00:32:10;98250.25;;;12.77;93.58
43420;BME280;29017;51.514;-0.178;2023-03-14T00:34:37;98240.72;;;12.76;94.35
43420;BME280;29017;51.514;-0.178;2023-03-14T00:37:04;98242.22;;;12.72;94.08
43420;BME280;29017;51.514;-0.178;2023-03-14T00:39:31;98244.06;;;12.71;94.75
43420;BME280;29017;51.514;-0.178;2023-03-14T00:41:58;98246.59;;;12.66;94.27
43420;BME280;29017;51.514;-0.178;2023-03-14T00:44:25;98241.78;;;12.63;94.62
43420;BME280;29017;51.514;-0.178;2023-03-14T00:46:52;98258.06;;;12.60;95.02
43420;BME280;29017;51.514;-0.178;2023-03-14T00:49:20;98256.09;;;12.56;95.28
43420;BME280;29017;51.514;-0.178;2023-03-14T00:51:47;98254.50;;;12.55;95.70
43420;BME280;29017;51.514;-0.178;2023-03-14T00:54:14;98267.47;;;12.56;96.40
43420;BME280;29017;51.514;-0.178;2023-03-14T00:56:41;98269.41;;;12.61;97.37
43420;BME280;29017;51.514;-0.178;2023-03-14T00:59:08;98255.41;;;12.60;97.48
43420;BME280;29017;51.514;-0.178;2023-03-14T01:01:36;98263.34;;;12.60;97.83
43420;BME280;29017;51.514;-0.178;2023-03-14T01:04:04;98314.84;;;12.63;98.00
43420;BME280;29017;51.514;-0.178;2023-03-14T01:06:31;98327.22;;;12.62;98.27
43420;BME280;29017;51.514;-0.178;2023-03-14T01:08:58;98365.66;;;12.58;96.79
43420;BME280;29017;51.514;-0.178;2023-03-14T01:11:27;98365.03;;;12.44;94.51
43420;BME280;29017;51.514;-0.178;2023-03-14T01:13:54;98387.13;;;12.32;93.10
43420;BME280;29017;51.514;-0.178;2023-03-14T01:16:22;98393.38;;;12.19;91.08
43420;BME280;29017;51.514;-0.178;2023-03-14T01:18:49;98407.41;;;12.02;89.84
43420;BME280;29017;51.514;-0.178;2023-03-14T01:23:44;98431.31;;;11.64;87.56
43420;BME280;29017;51.514;-0.178;2023-03-14T01:26:12;98439.44;;;11.44;86.95
43420;BME280;29017;51.514;-0.178;2023-03-14T01:28:40;98444.63;;;11.32;88.36
43420;BME280;29017;51.514;-0.178;2023-03-14T01:31:08;98458.66;;;11.26;88.96
43420;BME280;29017;51.514;-0.178;2023-03-14T01:33:36;98462.13;;;11.20;88.91
43420;BME280;29017;51.514;-0.178;2023-03-14T01:36:04;98484.09;;;11.07;87.71
43420;BME280;29017;51.514;-0.178;2023-03-14T01:38:32;98489.25;;;10.96;85.68
43420;BME280;29017;51.514;-0.178;2023-03-14T01:41:00;98500.00;;;10.88;86.52
43420;BME280;29017;51.514;-0.178;2023-03-14T01:43:27;98510.00;;;10.79;86.98
43420;BME280;29017;51.514;-0.178;2023-03-14T01:48:22;98526.06;;;10.64;86.48
43420;BME280;29017;51.514;-0.178;2023-03-14T01:50:49;98530.34;;;10.59;85.57
43420;BME280;29017;51.514;-0.178;2023-03-14T01:53:16;98534.97;;;10.57;85.37
43420;BME280;29017;51.514;-0.178;2023-03-14T01:55:48;98539.88;;;10.53;85.79
43420;BME280;29017;51.514;-0.178;2023-03-14T01:58:16;98542.91;;;10.50;86.04
43420;BME280;29017;51.514;-0.178;2023-03-14T02:00:43;98557.06;;;10.49;86.14
43420;BME280;29017;51.514;-0.178;2023-03-14T02:03:11;98555.47;;;10.48;86.97
43420;BME280;29017;51.514;-0.178;2023-03-14T02:05:41;98575.91;;;10.46;87.60
43420;BME280;29017;51.514;-0.178;2023-03-14T02:08:10;98583.78;;;10.46;86.51
43420;BME280;29017;51.514;-0.178;2023-03-14T02:10:40;98589.06;;;10.46;87.14
43420;BME280;29017;51.514;-0.178;2023-03-14T02:13:08;98583.19;;;10.44;87.48
43420;BME280;29017;51.514;-0.178;2023-03-14T02:15:35;98592.06;;;10.43;86.65
43420;BME280;29017;51.514;-0.178;2023-03-14T02:18:03;98601.59;;;10.44;86.20
43420;BME280;29017;51.514;-0.178;2023-03-14T02:22:57;98600.97;;;10.42;86.32
43420;BME280;29017;51.514;-0.178;2023-03-14T02:25:29;98613.53;;;10.40;86.18
43420;BME280;29017;51.514;-0.178;2023-03-14T02:28:00;98621.41;;;10.40;85.85
43420;BME280;29017;51.514;-0.178;2023-03-14T02:30:29;98621.41;;;10.40;86.55
43420;BME280;29017;51.514;-0.178;2023-03-14T02:32:58;98632.13;;;10.39;86.15
43420;BME280;29017;51.514;-0.178;2023-03-14T02:35:28;98643.66;;;10.31;83.99
43420;BME280;29017;51.514;-0.178;2023-03-14T02:37:57;98663.09;;;10.23;81.94
43420;BME280;29017;51.514;-0.178;2023-03-14T02:40:27;98678.66;;;10.18;79.78
43420;BME280;29017;51.514;-0.178;2023-03-14T02:42:53;98676.81;;;10.12;78.30
43420;BME280;29017;51.514;-0.178;2023-03-14T02:47:49;98705.31;;;9.96;76.69
43420;BME280;29017;51.514;-0.178;2023-03-14T02:50:20;98711.75;;;9.86;73.45
43420;BME280;29017;51.514;-0.178;2023-03-14T02:52:47;98719.06;;;9.84;73.46
43420;BME280;29017;51.514;-0.178;2023-03-14T02:55:19;98724.47;;;9.76;73.03
43420;BME280;29017;51.514;-0.178;2023-03-14T02:57:46;98725.69;;;9.67;71.17
43420;BME280;29017;51.514;-0.178;2023-03-14T03:00:13;98728.91;;;9.63;71.24
43420;BME280;29017;51.514;-0.178;2023-03-14T03:02:41;98732.50;;;9.55;70.17
43420;BME280;29017;51.514;-0.178;2023-03-14T03:05:08;98737.16;;;9.53;70.55
43420;BME280;29017;51.514;-0.178;2023-03-14T03:07:35;98736.75;;;9.50;72.41
43420;BME280;29017;51.514;-0.178;2023-03-14T03:10:02;98744.19;;;9.46;71.91
43420;BME280;29017;51.514;-0.178;2023-03-14T03:12:29;98759.94;;;9.46;74.03
43420;BME280;29017;51.514;-0.178;2023-03-14T03:14:56;98763.78;;;9.43;73.72
43420;BME280;29017;51.514;-0.178;2023-03-14T03:17:23;98764.97;;;9.41;73.79
43420;BME280;29017;51.514;-0.178;2023-03-14T03:19:50;98764.59;;;9.44;74.76
43420;BME280;29017;51.514;-0.178;2023-03-14T03:22:17;98776.91;;;9.43;74.50
43420;BME280;29017;51.514;-0.178;2023-03-14T03:24:44;98773.66;;;9.41;74.59
43420;BME280;29017;51.514;-0.178;2023-03-14T03:27:11;98786.19;;;9.39;75.92
43420;BME280;29017;51.514;-0.178;2023-03-14T03:29:38;98796.69;;;9.39;75.65
43420;BME280;29017;51.514;-0.178;2023-03-14T03:32:05;98803.53;;;9.40;75.29
43420;BME280;29017;51.514;-0.178;2023-03-14T03:34:32;98802.50;;;9.35;74.60
43420;BME280;29017;51.514;-0.178;2023-03-14T03:36:59;98812.41;;;9.33;76.64
43420;BME280;29017;51.514;-0.178;2023-03-14T03:39:25;98813.59;;;9.30;77.41
43420;BME280;29017;51.514;-0.178;2023-03-14T03:41:52;98827.91;;;9.28;77.27
43420;BME280;29017;51.514;-0.178;2023-03-14T03:44:19;98830.13;;;9.24;77.52
43420;BME280;29017;51.514;-0.178;2023-03-14T03:46:46;98837.56;;;9.21;77.61
43420;BME280;29017;51.514;-0.178;2023-03-14T03:49:13;98845.63;;;9.19;77.64
43420;BME280;29017;51.514;-0.178;2023-03-14T03:51:40;98852.69;;;9.19;77.48
43420;BME280;29017;51.514;-0.178;2023-03-14T03:54:07;98858.94;;;9.18;77.56
43420;BME280;29017;51.514;-0.178;2023-03-14T03:56:34;98859.31;;;9.15;77.07
43420;BME280;29017;51.514;-0.178;2023-03-14T03:59:01;98868.22;;;9.14;77.06
43420;BME280;29017;51.514;-0.178;2023-03-14T04:01:28;98874.81;;;9.10;76.27
43420;BME280;29017;51.514;-0.178;2023-03-14T04:03:56;98888.50;;;9.05;74.97
43420;BME280;29017;51.514;-0.178;2023-03-14T04:06:23;98874.16;;;9.01;73.84
43420;BME280;29017;51.514;-0.178;2023-03-14T04:08:50;98886.03;;;8.97;73.29
43420;BME280;29017;51.514;-0.178;2023-03-14T04:11:17;98888.41;;;8.92;72.69
43420;BME280;29017;51.514;-0.178;2023-03-14T04:13:44;98901.47;;;8.85;70.32
43420;BME280;29017;51.514;-0.178;2023-03-14T04:16:13;98901.06;;;8.82;68.87
43420;BME280;29017;51.514;-0.178;2023-03-14T04:18:45;98905.06;;;8.78;68.30
43420;BME280;29017;51.514;-0.178;2023-03-14T04:21:11;98915.91;;;8.75;68.90
43420;BME280;29017;51.514;-0.178;2023-03-14T04:23:38;98916.91;;;8.74;69.79
43420;BME280;29017;51.514;-0.178;2023-03-14T04:26:05;98937.69;;;8.75;69.84
43420;BME280;29017;51.514;-0.178;2023-03-14T04:28:32;98933.25;;;8.76;69.21
43420;BME280;29017;51.514;-0.178;2023-03-14T04:30:59;98955.88;;;8.77;70.30
43420;BME280;29017;51.514;-0.178;2023-03-14T04:33:32;98965.38;;;8.78;71.16
43420;BME280;29017;51.514;-0.178;2023-03-14T04:35:59;98970.59;;;8.78;71.29
43420;BME280;29017;51.514;-0.178;2023-03-14T04:38:26;98980.47;;;8.76;70.92
43420;BME280;29017;51.514;-0.178;2023-03-14T04:40:53;98993.75;;;8.74;71.59
43420;BME280;29017;51.514;-0.178;2023-03-14T04:43:20;98990.50;;;8.72;72.15
43420;BME280;29017;51.514;-0.178;2023-03-14T04:45:48;98997.13;;;8.68;71.87
43420;BME280;29017;51.514;-0.178;2023-03-14T04:48:14;99005.53;;;8.64;72.63
43420;BME280;29017;51.514;-0.178;2023-03-14T04:50:41;99015.41;;;8.62;71.18
43420;BME280;29017;51.514;-0.178;2023-03-14T04:53:08;99018.38;;;8.58;71.46
43420;BME280;29017;51.514;-0.178;2023-03-14T04:55:35;99024.81;;;8.56;71.04
43420;BME280;29017;51.514;-0.178;2023-03-14T04:58:02;99027.44;;;8.56;71.73
43420;BME280;29017;51.514;-0.178;2023-03-14T05:00:29;99038.56;;;8.58;71.22
43420;BME280;29017;51.514;-0.178;2023-03-14T05:02:56;99048.22;;;8.57;71.58
43420;BME280;29017;51.514;-0.178;2023-03-14T05:05:23;99044.41;;;8.60;72.39
43420;BME280;29017;51.514;-0.178;2023-03-14T05:07:50;99050.09;;;8.64;71.90
43420;BME280;29017;51.514;-0.178;2023-03-14T05:10:17;99054.16;;;8.66;71.89
43420;BME280;29017;51.514;-0.178;2023-03-14T05:12:44;99056.78;;;8.66;71.43
43420;BME280;29017;51.514;-0.178;2023-03-14T05:15:11;99054.81;;;8.68;71.09
43420;BME280;29017;51.514;-0.178;2023-03-14T05:17:38;99059.25;;;8.68;71.01
43420;BME280;29017;51.514;-0.178;2023-03-14T05:20:05;99059.41;;;8.66;70.40
43420;BME280;29017;51.514;-0.178;2023-03-14T05:22:35;99066.28;;;8.67;70.50
43420;BME280;29017;51.514;-0.178;2023-03-14T05:25:02;99076.81;;;8.74;71.35
43420;BME280;29017;51.514;-0.178;2023-03-14T05:27:29;99082.53;;;8.77;69.56
43420;BME280;29017;51.514;-0.178;2023-03-14T05:29:56;99086.03;;;8.84;69.61
43420;BME280;29017;51.514;-0.178;2023-03-14T05:32:23;99103.38;;;8.85;69.45
43420;BME280;29017;51.514;-0.178;2023-03-14T05:34:50;99110.66;;;8.83;69.25
43420;BME280;29017;51.514;-0.178;2023-03-14T05:37:17;99111.25;;;8.85;69.20
43420;BME280;29017;51.514;-0.178;2023-03-14T05:39:45;99120.31;;;8.83;68.33
43420;BME280;29017;51.514;-0.178;2023-03-14T05:42:12;99122.47;;;8.79;67.83
43420;BME280;29017;51.514;-0.178;2023-03-14T05:44:40;99118.88;;;8.80;68.31
43420;BME280;29017;51.514;-0.178;2023-03-14T05:47:06;99126.13;;;8.78;68.08
43420;BME280;29017;51.514;-0.178;2023-03-14T05:49:33;99133.53;;;8.75;68.38
43420;BME280;29017;51.514;-0.178;2023-03-14T05:52:00;99144.00;;;8.75;67.77
43420;BME280;29017;51.514;-0.178;2023-03-14T05:54:27;99148.63;;;8.73;65.83
43420;BME280;29017;51.514;-0.178;2023-03-14T05:56:54;99163.34;;;8.74;67.41
43420;BME280;29017;51.514;-0.178;2023-03-14T05:59:21;99160.72;;;8.74;67.18
43420;BME280;29017;51.514;-0.178;2023-03-14T06:01:48;99163.56;;;8.72;67.01
43420;BME280;29017;51.514;-0.178;2023-03-14T06:04:15;99169.34;;;8.68;66.27
43420;BME280;29017;51.514;-0.178;2023-03-14T06:06:41;99168.31;;;8.69;67.20
43420;BME280;29017;51.514;-0.178;2023-03-14T06:09:08;99167.97;;;8.72;66.79
43420;BME280;29017;51.514;-0.178;2023-03-14T06:11:35;99184.97;;;8.76;65.67
43420;BME280;29017;51.514;-0.178;2023-03-14T06:14:02;99181.78;;;8.80;66.90
43420;BME280;29017;51.514;-0.178;2023-03-14T06:16:29;99190.31;;;8.82;65.88
43420;BME280;29017;51.514;-0.178;2023-03-14T06:18:56;99202.44;;;8.83;66.92
43420;BME280;29017;51.514;-0.178;2023-03-14T06:21:23;99194.56;;;8.83;67.39
43420;BME280;29017;51.514;-0.178;2023-03-14T06:23:50;99209.91;;;8.86;66.83
43420;BME280;29017;51.514;-0.178;2023-03-14T06:26:17;99210.91;;;8.85;65.25
43420;BME280;29017;51.514;-0.178;2023-03-14T06:28:44;99217.78;;;8.86;66.78
43420;BME280;29017;51.514;-0.178;2023-03-14T06:31:11;99229.91;;;8.87;66.14
43420;BME280;29017;51.514;-0.178;2023-03-14T06:33:38;99237.94;;;8.86;66.09
43420;BME280;29017;51.514;-0.178;2023-03-14T06:36:05;99238.59;;;8.88;66.43
43420;BME280;29017;51.514;-0.178;2023-03-14T06:38:32;99251.34;;;8.91;65.81
43420;BME280;29017;51.514;-0.178;2023-03-14T06:43:29;99259.84;;;8.93;66.01
43420;BME280;29017;51.514;-0.178;2023-03-14T06:45:56;99260.66;;;8.93;66.17
43420;BME280;29017;51.514;-0.178;2023-03-14T06:48:23;99279.03;;;8.93;66.87
43420;BME280;29017;51.514;-0.178;2023-03-14T06:50:50;99289.31;;;8.95;67.28
43420;BME280;29017;51.514;-0.178;2023-03-14T06:53:17;99294.22;;;8.98;66.53
43420;BME280;29017;51.514;-0.178;2023-03-14T06:55:44;99303.69;;;8.99;65.67
43420;BME280;29017;51.514;-0.178;2023-03-14T06:58:12;99305.31;;;9.00;65.83
43420;BME280;29017;51.514;-0.178;2023-03-14T07:00:39;99318.91;;;9.04;66.93
43420;BME280;29017;51.514;-0.178;2023-03-14T07:03:06;99321.34;;;9.05;66.32
43420;BME280;29017;51.514;-0.178;2023-03-14T07:05:33;99331.66;;;9.07;66.15
43420;BME280;29017;51.514;-0.178;2023-03-14T07:07:59;99330.31;;;9.11;66.89
43420;BME280;29017;51.514;-0.178;2023-03-14T07:10:27;99339.00;;;9.11;66.36
43420;BME280;29017;51.514;-0.178;2023-03-14T07:12:54;99348.50;;;9.12;66.02
43420;BME280;29017;51.514;-0.178;2023-03-14T07:15:21;99364.69;;;9.16;66.71
43420;BME280;29017;51.514;-0.178;2023-03-14T07:17:48;99368.56;;;9.20;67.50
43420;BME280;29017;51.514;-0.178;2023-03-14T07:20:16;99376.28;;;9.21;66.82
43420;BME280;29017;51.514;-0.178;2023-03-14T07:22:43;99393.47;;;9.24;67.09
43420;BME280;29017;51.514;-0.178;2023-03-14T07:25:10;99397.44;;;9.20;66.82
43420;BME280;29017;51.514;-0.178;2023-03-14T07:27:38;99408.31;;;9.17;67.03
43420;BME280;29017;51.514;-0.178;2023-03-14T07:30:05;99408.47;;;9.15;66.66
43420;BME280;29017;51.514;-0.178;2023-03-14T07:32:33;99422.78;;;9.13;68.24
43420;BME280;29017;51.514;-0.178;2023-03-14T07:35:01;99427.56;;;9.09;68.25
43420;BME280;29017;51.514;-0.178;2023-03-14T07:37:28;99439.94;;;9.00;68.83
43420;BME280;29017;51.514;-0.178;2023-03-14T07:39:57;99447.34;;;8.97;70.50
43420;BME280;29017;51.514;-0.178;2023-03-14T07:42:24;99467.06;;;8.93;71.45
43420;BME280;29017;51.514;-0.178;2023-03-14T07:44:52;99468.75;;;8.86;72.31
43420;BME280;29017;51.514;-0.178;2023-03-14T07:47:19;99486.81;;;8.81;74.45
43420;BME280;29017;51.514;-0.178;2023-03-14T07:49:46;99491.22;;;8.80;76.18
43420;BME280;29017;51.514;-0.178;2023-03-14T07:52:13;99504.50;;;8.79;76.06
43420;BME280;29017;51.514;-0.178;2023-03-14T07:54:40;99521.25;;;8.78;77.16
43420;BME280;29017;51.514;-0.178;2023-03-14T07:57:07;99540.13;;;8.73;77.53
43420;BME280;29017;51.514;-0.178;2023-03-14T07:59:34;99542.47;;;8.68;76.59
43420;BME280;29017;51.514;-0.178;2023-03-14T08:02:01;99550.19;;;8.62;77.45
43420;BME280;29017;51.514;-0.178;2023-03-14T08:04:32;99560.69;;;8.53;77.51
43420;BME280;29017;51.514;-0.178;2023-03-14T08:06:59;99566.97;;;8.44;78.82
43420;BME280;29017;51.514;-0.178;2023-03-14T08:09:27;99586.94;;;8.45;80.00
43420;BME280;29017;51.514;-0.178;2023-03-14T08:11:59;99597.63;;;8.36;79.33
43420;BME280;29017;51.514;-0.178;2023-03-14T08:14:26;99599.78;;;8.32;81.14
43420;BME280;29017;51.514;-0.178;2023-03-14T08:16:55;99614.84;;;8.30;81.50
43420;BME280;29017;51.514;-0.178;2023-03-14T08:19:23;99615.97;;;8.28;82.22
43420;BME280;29017;51.514;-0.178;2023-03-14T08:21:56;99625.97;;;8.24;81.94
43420;BME280;29017;51.514;-0.178;2023-03-14T08:24:23;99648.72;;;8.24;82.02
43420;BME280;29017;51.514;-0.178;2023-03-14T08:26:50;99644.31;;;8.24;82.80
43420;BME280;29017;51.514;-0.178;2023-03-14T08:29:21;99653.81;;;8.25;82.44
43420;BME280;29017;51.514;-0.178;2023-03-14T08:32:05;99672.16;;;8.25;82.01
43420;BME280;29017;51.514;-0.178;2023-03-14T08:34:33;99680.34;;;8.22;82.52
43420;BME280;29017;51.514;-0.178;2023-03-14T08:37:00;99693.94;;;8.18;82.42
43420;BME280;29017;51.514;-0.178;2023-03-14T08:39:31;99702.13;;;8.14;81.86
43420;BME280;29017;51.514;-0.178;2023-03-14T08:41:59;99705.09;;;8.11;82.08
43420;BME280;29017;51.514;-0.178;2023-03-14T08:44:26;99712.28;;;8.09;82.47
43420;BME280;29017;51.514;-0.178;2023-03-14T08:46:54;99729.63;;;8.10;82.22
43420;BME280;29017;51.514;-0.178;2023-03-14T08:49:22;99742.59;;;8.12;82.60
43420;BME280;29017;51.514;-0.178;2023-03-14T08:52:04;99748.31;;;8.07;82.63
43420;BME280;29017;51.514;-0.178;2023-03-14T08:54:31;99761.72;;;8.04;82.10
43420;BME280;29017;51.514;-0.178;2023-03-14T08:56:58;99776.47;;;7.97;81.83
43420;BME280;29017;51.514;-0.178;2023-03-14T08:59:36;99774.63;;;7.90;82.14
43420;BME280;29017;51.514;-0.178;2023-03-14T09:02:11;99786.59;;;7.92;83.53
43420;BME280;29017;51.514;-0.178;2023-03-14T09:04:39;99793.63;;;7.92;81.95
43420;BME280;29017;51.514;-0.178;2023-03-14T09:07:06;99807.22;;;7.95;83.16
43420;BME280;29017;51.514;-0.178;2023-03-14T09:09:34;99815.06;;;7.95;82.85
43420;BME280;29017;51.514;-0.178;2023-03-14T09:12:18;99818.53;;;7.96;82.69
43420;BME280;29017;51.514;-0.178;2023-03-14T09:14:45;99834.53;;;7.93;81.87
43420;BME280;29017;51.514;-0.178;2023-03-14T09:17:12;99851.84;;;7.78;79.67
43420;BME280;29017;51.514;-0.178;2023-03-14T09:19:46;99859.50;;;7.63;81.02
43420;BME280;29017;51.514;-0.178;2023-03-14T09:22:13;99871.41;;;7.57;81.39
43420;BME280;29017;51.514;-0.178;2023-03-14T09:24:40;99880.47;;;7.37;81.29
43420;BME280;29017;51.514;-0.178;2023-03-14T09:27:07;99890.75;;;7.30;82.38
43420;BME280;29017;51.514;-0.178;2023-03-14T09:29:34;99903.78;;;7.22;82.46
43420;BME280;29017;51.514;-0.178;2023-03-14T09:32:02;99899.84;;;7.18;83.18
43420;BME280;29017;51.514;-0.178;2023-03-14T09:34:30;99908.84;;;7.24;83.64
43420;BME280;29017;51.514;-0.178;2023-03-14T09:36:57;99923.13;;;7.29;83.10
43420;BME280;29017;51.514;-0.178;2023-03-14T09:39:28;99937.22;;;7.37;83.77
43420;BME280;29017;51.514;-0.178;2023-03-14T09:42:07;99945.94;;;7.45;84.22
43420;BME280;29017;51.514;-0.178;2023-03-14T09:44:39;99953.84;;;7.53;83.20
43420;BME280;29017;51.514;-0.178;2023-03-14T09:47:11;99957.97;;;7.56;82.57
43420;BME280;29017;51.514;-0.178;2023-03-14T09:49:39;99966.09;;;7.53;81.59
43420;BME280;29017;51.514;-0.178;2023-03-14T09:52:11;99971.03;;;7.56;81.63
43420;BME280;29017;51.514;-0.178;2023-03-14T09:54:42;99981.03;;;7.60;82.23
43420;BME280;29017;51.514;-0.178;2023-03-14T09:57:11;99990.22;;;7.64;82.03
43420;BME280;29017;51.514;-0.178;2023-03-14T09:59:39;99995.84;;;7.52;79.57
43420;BME280;29017;51.514;-0.178;2023-03-14T10:04:39;100017.09;;;7.66;82.60
43420;BME280;29017;51.514;-0.178;2023-03-14T10:07:13;100025.47;;;7.78;82.59
43420;BME280;29017;51.514;-0.178;2023-03-14T10:09:43;100022.59;;;7.89;81.98
43420;BME280;29017;51.514;-0.178;2023-03-14T10:12:11;100029.50;;;7.98;80.63
43420;BME280;29017;51.514;-0.178;2023-03-14T10:14:44;100024.94;;;8.00;79.25
43420;BME280;29017;51.514;-0.178;2023-03-14T10:17:12;100026.44;;;8.03;78.28
43420;BME280;29017;51.514;-0.178;2023-03-14T10:22:11;100039.78;;;8.18;77.76
43420;BME280;29017;51.514;-0.178;2023-03-14T10:24:40;100051.13;;;8.26;78.65
43420;BME280;29017;51.514;-0.178;2023-03-14T10:27:17;100054.59;;;8.35;78.59
43420;BME280;29017;51.514;-0.178;2023-03-14T10:32:18;100072.53;;;8.47;75.02
43420;BME280;29017;51.514;-0.178;2023-03-14T10:35:03;100076.81;;;8.56;75.27
43420;BME280;29017;51.514;-0.178;2023-03-14T10:37:30;100098.63;;;8.65;75.22
43420;BME280;29017;51.514;-0.178;2023-03-14T10:39:59;100104.91;;;8.72;73.72
43420;BME280;29017;51.514;-0.178;2023-03-14T10:42:33;100103.59;;;8.76;72.92
43420;BME280;29017;51.514;-0.178;2023-03-14T10:45:02;100108.03;;;8.84;72.58
43420;BME280;29017;51.514;-0.178;2023-03-14T10:47:31;100106.91;;;8.94;73.19
43420;BME280;29017;51.514;-0.178;2023-03-14T10:52:29;100116.31;;;9.13;73.10
43420;BME280;29017;51.514;-0.178;2023-03-14T10:55:18;100131.28;;;9.29;71.94
43420;BME280;29017;51.514;-0.178;2023-03-14T10:57:45;100145.09;;;9.39;70.07
43420;BME280;29017;51.514;-0.178;2023-03-14T11:07:39;100166.28;;;9.70;68.25
43420;BME280;29017;51.514;-0.178;2023-03-14T11:15:05;100198.63;;;9.78;68.14
43420;BME280;29017;51.514;-0.178;2023-03-14T11:17:38;100207.81;;;9.82;67.90
43420;BME280;29017;51.514;-0.178;2023-03-14T11:35:03;100216.97;;;9.54;66.80
43420;BME280;29017;51.514;-0.178;2023-03-14T11:37:36;100224.03;;;9.54;66.15
43420;BME280;29017;51.514;-0.178;2023-03-14T11:40:13;100223.69;;;9.57;66.09
43420;BME280;29017;51.514;-0.178;2023-03-14T11:42:42;100225.00;;;9.61;66.83
43420;BME280;29017;51.514;-0.178;2023-03-14T11:45:13;100224.22;;;9.68;66.74
43420;BME280;29017;51.514;-0.178;2023-03-14T11:47:42;100241.63;;;9.77;66.11
43420;BME280;29017;51.514;-0.178;2023-03-14T11:50:15;100249.50;;;9.85;64.01
43420;BME280;29017;51.514;-0.178;2023-03-14T11:52:46;100251.50;;;9.92;61.82
43420;BME280;29017;51.514;-0.178;2023-03-14T11:57:42;100264.00;;;9.98;62.43
43420;BME280;29017;51.514;-0.178;2023-03-14T12:07:50;100272.22;;;10.03;60.86
43420;BME280;29017;51.514;-0.178;2023-03-14T12:10:23;100286.66;;;10.07;60.67
43420;BME280;29017;51.514;-0.178;2023-03-14T12:12:51;100293.22;;;10.11;61.63
43420;BME280;29017;51.514;-0.178;2023-03-14T12:15:19;100290.00;;;10.17;61.04
43420;BME280;29017;51.514;-0.178;2023-03-14T12:17:47;100282.13;;;10.25;61.29
43420;BME280;29017;51.514;-0.178;2023-03-14T12:20:22;100290.66;;;10.43;61.72
43420;BME280;29017;51.514;-0.178;2023-03-14T12:22:52;100300.03;;;10.46;56.79
43420;BME280;29017;51.514;-0.178;2023-03-14T12:25:21;100298.53;;;10.43;56.41
43420;BME280;29017;51.514;-0.178;2023-03-14T12:37:58;100308.72;;;10.70;54.58
43420;BME280;29017;51.514;-0.178;2023-03-14T12:42:59;100319.56;;;10.76;51.17
43420;BME280;29017;51.514;-0.178;2023-03-14T12:45:29;100313.47;;;10.75;52.61
43420;BME280;29017;51.514;-0.178;2023-03-14T12:55:32;100332.56;;;10.85;53.50
43420;BME280;29017;51.514;-0.178;2023-03-14T13:00:34;100320.22;;;10.78;52.82
43420;BME280;29017;51.514;-0.178;2023-03-14T13:03:12;100331.06;;;10.83;55.27
43420;BME280;29017;51.514;-0.178;2023-03-14T13:05:51;100327.94;;;10.79;53.17
43420;BME280;29017;51.514;-0.178;2023-03-14T13:08:32;100336.00;;;10.78;51.75
43420;BME280;29017;51.514;-0.178;2023-03-14T13:11:01;100328.28;;;10.76;52.53
43420;BME280;29017;51.514;-0.178;2023-03-14T13:13:28;100336.84;;;10.70;50.16
43420;BME280;29017;51.514;-0.178;2023-03-14T13:15:57;100346.06;;;10.66;50.23
43420;BME280;29017;51.514;-0.178;2023-03-14T13:20:59;100344.09;;;10.60;51.78
43420;BME280;29017;51.514;-0.178;2023-03-14T13:23:30;100346.53;;;10.53;50.63
43420;BME280;29017;51.514;-0.178;2023-03-14T13:25:59;100349.66;;;10.49;50.32
43420;BME280;29017;51.514;-0.178;2023-03-14T13:28:27;100350.34;;;10.51;51.33
43420;BME280;29017;51.514;-0.178;2023-03-14T13:33:26;100359.53;;;10.63;49.50
43420;BME280;29017;51.514;-0.178;2023-03-14T13:35:55;100369.91;;;10.64;49.39
43420;BME280;29017;51.514;-0.178;2023-03-14T13:38:25;100362.16;;;10.63;48.69
43420;BME280;29017;51.514;-0.178;2023-03-14T13:40:54;100372.19;;;10.59;47.84
43420;BME280;29017;51.514;-0.178;2023-03-14T13:43:27;100369.72;;;10.58;49.15
43420;BME280;29017;51.514;-0.178;2023-03-14T13:48:29;100372.84;;;10.69;49.55
43420;BME280;29017;51.514;-0.178;2023-03-14T13:50:59;100374.97;;;10.82;49.02
43420;BME280;29017;51.514;-0.178;2023-03-14T13:53:27;100380.56;;;10.95;49.43
43420;BME280;29017;51.514;-0.178;2023-03-14T13:55:55;100375.78;;;11.07;50.05
43420;BME280;29017;51.514;-0.178;2023-03-14T13:58:23;100384.81;;;11.21;49.49
43420;BME280;29017;51.514;-0.178;2023-03-14T14:00:57;100390.69;;;11.39;50.64
43420;BME280;29017;51.514;-0.178;2023-03-14T14:03:26;100401.53;;;11.52;48.33
43420;BME280;29017;51.514;-0.178;2023-03-14T14:05:54;100401.84;;;11.57;47.50
43420;BME280;29017;51.514;-0.178;2023-03-14T14:08:22;100400.81;;;11.66;47.39
43420;BME280;29017;51.514;-0.178;2023-03-14T14:10:50;100418.09;;;11.77;46.08
43420;BME280;29017;51.514;-0.178;2023-03-14T14:13:20;100407.88;;;11.82;46.67
43420;BME280;29017;51.514;-0.178;2023-03-14T14:15:49;100406.16;;;11.89;45.90
43420;BME280;29017;51.514;-0.178;2023-03-14T14:18:18;100422.28;;;11.94;44.78
43420;BME280;29017;51.514;-0.178;2023-03-14T14:20:47;100416.69;;;11.97;44.54
43420;BME280;29017;51.514;-0.178;2023-03-14T14:25:46;100428.16;;;12.12;45.95
43420;BME280;29017;51.514;-0.178;2023-03-14T14:30:43;100436.53;;;12.16;45.30
43420;BME280;29017;51.514;-0.178;2023-03-14T14:33:12;100444.75;;;12.21;45.75
43420;BME280;29017;51.514;-0.178;2023-03-14T14:35:48;100449.72;;;12.16;45.58